SBMO/MCZ METAR and TAF weather

Enter ICAO airport designator
Station Type Date Time Source
SBMO METAR 2021/04/13 07:00 UTC NOAA

SBMO 130700Z 29002KT 9999 SCT020 SCT080 23/23 Q1013


Station Type Date Time Source
SBMO Decoded METAR 2021/04/13 07:00 UTC NOAA

Maceio Aeroporto , Brazil (SBMO) 09-31S 035-47W 115M
Apr 13, 2021 - 03:00 AM EDT / 2021.04.13 0700 UTC
Wind: from the WNW (290 degrees) at 2 MPH (2 KT):0
Visibility: greater than 7 mile(s):0
Sky conditions: partly cloudy
Temperature: 73 F (23 C)
Dew Point: 73 F (23 C)
Relative Humidity: 100%
Pressure (altimeter): 29.91 in. Hg (1013 hPa)
ob: SBMO 130700Z 29002KT 9999 SCT020 SCT080 23/23 Q1013
cycle: 7

Station Type Date Time Source
SBMO TAF 2021/04/13 06:09 UTC NOAA

TAF TAF SBMO 130400Z 1306/1406 30005KT 7000 SCT012 BKN020 TN22/1308Z TX27/1316Z
BECMG 1307/1309 23005KT 4000 RA BR SCT010 BKN015
BECMG 1310/1313 12007KT 7000 NSW SCT012 BKN020
BECMG 1320/1323 06005KT
BECMG 1400/1403 33005KT 6000 RA SCT010 BKN015
RMK PHC

Example: see airport list